Time;durP1;ratioP1;P1;durP2;ratioP2;P2;SDS_P1;SDS_P2;PMS_P1;PMS_P2;Temp;Humidity;BMP_temperature;BMP_pressure;BME280_temperature;BME280_humidity;BME280_pressure;Samples;Min_cycle;Max_cycle;Signal;HPM_P1;HPM_P2
2022/12/18 00:01:41;;;;;;;1.50;1.40;;;-5.30;99.90;;;;;;5052798;28;20485;-47
2022/12/18 00:04:16;;;;;;;2.22;1.73;;;-5.60;99.90;;;;;;5052388;28;20239;-48
2022/12/18 00:06:43;;;;;;;2.22;1.85;;;-5.80;99.90;;;;;;5051854;28;20583;-47
2022/12/18 00:09:10;;;;;;;2.92;1.85;;;-5.80;99.90;;;;;;5051490;28;20195;-46
2022/12/18 00:11:36;;;;;;;1.63;1.50;;;-5.70;99.90;;;;;;5051988;28;20191;-49
2022/12/18 00:14:05;;;;;;;2.58;2.08;;;-5.70;99.90;;;;;;5051894;28;20196;-46
2022/12/18 00:16:35;;;;;;;2.33;1.85;;;-5.80;99.90;;;;;;5051243;28;20230;-48
2022/12/18 00:19:02;;;;;;;2.10;1.50;;;-5.60;99.90;;;;;;5051587;28;20233;-48
2022/12/18 00:21:30;;;;;;;3.35;1.95;;;-5.60;99.90;;;;;;5051152;28;20226;-47
2022/12/18 00:23:57;;;;;;;2.78;2.10;;;-5.70;99.90;;;;;;5050302;28;20703;-48
2022/12/18 00:26:26;;;;;;;3.55;3.00;;;-5.80;99.90;;;;;;5050175;28;20704;-47
2022/12/18 00:28:55;;;;;;;2.15;1.95;;;-6.10;99.90;;;;;;5050252;28;20282;-47
2022/12/18 00:31:25;;;;;;;2.30;1.52;;;-6.10;99.90;;;;;;5050029;28;20655;-48
2022/12/18 00:33:54;;;;;;;2.72;1.88;;;-5.90;99.90;;;;;;5050081;28;20191;-47
2022/12/18 00:36:23;;;;;;;2.60;2.15;;;-6.10;99.90;;;;;;5049936;28;20223;-47
2022/12/18 00:38:50;;;;;;;2.20;1.90;;;-6.00;99.90;;;;;;5051501;28;20208;-49
2022/12/18 00:42:55;;;;;;;3.78;2.15;;;-6.20;99.90;;;;;;5051273;28;20226;-47
2022/12/18 00:44:06;;;;;;;3.10;1.70;;;-6.00;99.90;;;;;;5051333;28;20203;-47
2022/12/18 00:46:34;;;;;;;3.22;2.25;;;-5.50;99.90;;;;;;5051419;28;20216;-46
2022/12/18 00:49:02;;;;;;;2.28;1.85;;;-5.60;99.90;;;;;;5051093;28;20206;-47
2022/12/18 00:51:28;;;;;;;3.45;1.55;;;-5.80;99.90;;;;;;5041140;28;20461;-46
2022/12/18 00:53:55;;;;;;;4.70;1.98;;;-5.90;99.90;;;;;;5032924;28;20207;-46
2022/12/18 00:56:22;;;;;;;2.25;2.05;;;-5.90;99.90;;;;;;5052078;28;20241;-46
2022/12/18 00:58:50;;;;;;;2.30;1.97;;;-6.10;99.90;;;;;;5051966;28;20294;-48
2022/12/18 01:01:18;;;;;;;2.03;1.75;;;-6.10;99.90;;;;;;5051983;28;20445;-47
2022/12/18 01:03:46;;;;;;;3.70;2.10;;;-6.30;99.90;;;;;;5052076;28;20291;-47
2022/12/18 01:06:15;;;;;;;2.28;1.63;;;-6.10;99.90;;;;;;5051731;28;20218;-46
2022/12/18 01:08:43;;;;;;;2.22;1.92;;;-6.00;99.90;;;;;;5051996;28;20707;-47
2022/12/18 01:11:11;;;;;;;2.13;1.73;;;-6.30;99.90;;;;;;5051879;28;20286;-47
2022/12/18 01:13:38;;;;;;;3.67;1.70;;;-6.40;99.90;;;;;;5050984;28;20199;-48
2022/12/18 01:16:06;;;;;;;2.25;1.73;;;-6.40;99.90;;;;;;5052013;28;20326;-46
2022/12/18 01:18:33;;;;;;;2.90;2.03;;;-6.50;99.90;;;;;;5051662;28;20199;-47
2022/12/18 01:21:01;;;;;;;1.58;1.20;;;-6.40;99.90;;;;;;5051758;28;20205;-47
2022/12/18 01:23:28;;;;;;;1.08;0.90;;;-6.50;99.90;;;;;;5051692;28;20285;-48
2022/12/18 01:25:55;;;;;;;3.17;1.05;;;-6.60;99.90;;;;;;5051797;28;20269;-47
2022/12/18 01:28:22;;;;;;;1.85;1.38;;;-6.50;99.90;;;;;;5051529;28;20199;-47
2022/12/18 01:30:49;;;;;;;2.15;1.30;;;-6.30;99.90;;;;;;5035980;28;20286;-48
2022/12/18 01:33:16;;;;;;;1.85;1.75;;;-6.30;99.90;;;;;;5051704;28;20282;-47
2022/12/18 01:35:43;;;;;;;1.90;1.52;;;-6.40;99.90;;;;;;5051331;28;20843;-47
2022/12/18 01:38:11;;;;;;;2.10;1.50;;;-6.40;99.90;;;;;;5051430;28;20637;-47
2022/12/18 01:40:38;;;;;;;1.75;1.40;;;-6.50;99.90;;;;;;5050894;28;20278;-48
2022/12/18 01:43:05;;;;;;;1.55;1.17;;;-6.40;99.90;;;;;;5050800;28;20631;-47
2022/12/18 01:45:32;;;;;;;2.45;1.13;;;-6.40;99.90;;;;;;5049290;28;20215;-46
2022/12/18 01:48:02;;;;;;;1.50;1.23;;;-6.40;99.90;;;;;;5051160;28;20278;-47
2022/12/18 01:50:33;;;;;;;1.95;1.20;;;-6.20;99.90;;;;;;5051387;28;20210;-46
2022/12/18 01:53:06;;;;;;;1.95;1.75;;;-6.30;99.90;;;;;;5051049;28;20225;-47
2022/12/18 01:55:42;;;;;;;2.00;1.00;;;-6.10;99.90;;;;;;5050884;28;20725;-48
2022/12/18 01:58:09;;;;;;;2.00;1.10;;;-6.30;99.90;;;;;;5051625;28;20210;-46
2022/12/18 02:00:36;;;;;;;1.45;1.20;;;-6.40;99.90;;;;;;5050824;28;20210;-47
2022/12/18 02:03:02;;;;;;;1.98;1.20;;;-6.30;99.90;;;;;;5051104;28;20278;-46
2022/12/18 02:05:41;;;;;;;1.40;0.90;;;-6.30;99.90;;;;;;5051027;28;20238;-50
2022/12/18 02:08:13;;;;;;;1.40;1.20;;;-6.20;99.90;;;;;;5051226;28;20195;-48
2022/12/18 02:10:49;;;;;;;1.20;0.93;;;-6.40;99.90;;;;;;5051062;28;20195;-47
2022/12/18 02:13:23;;;;;;;1.52;1.40;;;-6.30;99.90;;;;;;5050876;28;20205;-48
2022/12/18 02:15:59;;;;;;;2.08;1.20;;;-6.40;99.90;;;;;;5050910;28;20211;-49
2022/12/18 02:18:31;;;;;;;2.10;1.60;;;-6.30;99.90;;;;;;5049247;28;20210;-47
2022/12/18 02:21:05;;;;;;;3.53;2.00;;;-6.20;99.90;;;;;;5049850;28;20286;-46
2022/12/18 02:23:48;;;;;;;1.73;1.33;;;-6.00;99.90;;;;;;5049491;28;20648;-46
2022/12/18 02:26:23;;;;;;;3.45;1.52;;;-6.20;99.90;;;;;;5049622;28;20306;-48
2022/12/18 02:28:55;;;;;;;2.05;1.20;;;-6.20;99.90;;;;;;5049306;28;20202;-46
2022/12/18 02:31:26;;;;;;;1.27;1.05;;;-6.10;99.90;;;;;;5049160;28;20201;-47
2022/12/18 02:33:56;;;;;;;1.48;1.38;;;-6.20;99.90;;;;;;5050425;28;20275;-48
2022/12/18 02:36:26;;;;;;;1.30;1.10;;;-6.10;99.90;;;;;;5052184;28;20223;-49
2022/12/18 02:38:55;;;;;;;2.53;1.45;;;-5.90;99.90;;;;;;5050565;28;20298;-46
2022/12/18 02:41:24;;;;;;;3.00;1.00;;;-6.20;99.90;;;;;;5051203;28;20235;-49
2022/12/18 02:43:56;;;;;;;1.48;1.23;;;-6.10;99.90;;;;;;5050609;28;20674;-46
2022/12/18 02:46:29;;;;;;;1.48;0.93;;;-6.20;99.90;;;;;;5050360;28;20298;-47
2022/12/18 02:49:02;;;;;;;1.63;1.10;;;-6.30;99.90;;;;;;5050434;28;20637;-49
2022/12/18 02:51:33;;;;;;;1.77;1.60;;;-6.40;99.90;;;;;;5050585;28;20660;-48
2022/12/18 02:54:09;;;;;;;0.80;0.60;;;-6.40;99.90;;;;;;5049840;28;20226;-46
2022/12/18 02:56:46;;;;;;;2.00;1.60;;;-6.20;99.90;;;;;;5051058;28;20562;-46
2022/12/18 02:59:18;;;;;;;1.30;1.20;;;-6.20;99.90;;;;;;5050297;28;20205;-48
2022/12/18 03:01:54;;;;;;;4.30;1.05;;;-6.40;99.90;;;;;;5050806;28;20206;-48
2022/12/18 03:04:27;;;;;;;1.77;1.02;;;-6.20;99.90;;;;;;5049877;28;20241;-48
2022/12/18 03:06:57;;;;;;;1.75;1.10;;;-6.40;99.90;;;;;;5050532;28;20203;-47
2022/12/18 03:09:32;;;;;;;1.70;1.58;;;-6.10;99.90;;;;;;5050028;28;20198;-47
2022/12/18 03:12:25;;;;;;;1.45;1.35;;;-6.50;99.90;;;;;;5050645;28;20297;-46
2022/12/18 03:14:57;;;;;;;3.05;1.20;;;-6.30;99.90;;;;;;5053813;28;20785;-46
2022/12/18 03:17:27;;;;;;;1.30;1.20;;;-6.50;99.90;;;;;;5054261;28;20302;-46
2022/12/18 03:19:57;;;;;;;1.55;1.00;;;-6.90;99.90;;;;;;5053755;28;20195;-49
2022/12/18 03:22:27;;;;;;;2.95;0.88;;;-6.70;99.90;;;;;;5054168;28;20200;-47
2022/12/18 03:24:57;;;;;;;2.58;0.95;;;-6.80;99.90;;;;;;5053765;28;20318;-47
2022/12/18 03:27:28;;;;;;;1.77;1.30;;;-6.50;99.90;;;;;;5054372;28;20278;-46
2022/12/18 03:30:06;;;;;;;1.00;0.75;;;-6.30;99.90;;;;;;5053699;28;20283;-47
2022/12/18 03:32:39;;;;;;;1.75;1.02;;;-6.40;99.90;;;;;;5054399;28;20203;-47
2022/12/18 03:35:09;;;;;;;1.63;1.05;;;-6.50;99.90;;;;;;5053828;28;20238;-46
2022/12/18 03:37:36;;;;;;;1.10;0.80;;;-6.60;99.90;;;;;;5053220;28;20684;-47
2022/12/18 03:40:03;;;;;;;1.00;0.80;;;-6.50;99.90;;;;;;5053771;28;20291;-46
2022/12/18 03:42:40;;;;;;;1.17;0.98;;;-6.40;99.90;;;;;;5053817;28;20574;-46
2022/12/18 03:45:11;;;;;;;1.27;1.08;;;-6.10;99.90;;;;;;5053611;28;20254;-48
2022/12/18 03:47:45;;;;;;;1.27;1.00;;;-6.00;99.90;;;;;;5053490;28;20275;-48
2022/12/18 03:50:17;;;;;;;2.05;1.20;;;-5.80;99.90;;;;;;5053708;28;20783;-49
2022/12/18 03:52:50;;;;;;;1.55;1.08;;;-5.80;99.90;;;;;;5053511;28;20192;-49
2022/12/18 03:55:18;;;;;;;1.95;1.15;;;-6.60;99.90;;;;;;5053133;28;20306;-47
2022/12/18 03:57:49;;;;;;;1.13;1.02;;;-6.90;99.90;;;;;;5053593;28;20308;-47
2022/12/18 04:00:18;;;;;;;2.55;0.82;;;-6.50;99.90;;;;;;5053445;28;20280;-47
2022/12/18 04:02:49;;;;;;;2.00;1.30;;;-6.70;99.90;;;;;;5053403;28;20649;-46
2022/12/18 04:05:18;;;;;;;1.10;0.93;;;-6.70;99.90;;;;;;5052855;28;20219;-47
2022/12/18 04:07:47;;;;;;;2.85;1.45;;;-6.60;99.90;;;;;;5052858;28;20238;-47
2022/12/18 04:10:16;;;;;;;1.77;1.30;;;-6.20;99.90;;;;;;5053510;28;20258;-48
2022/12/18 04:12:43;;;;;;;1.10;1.00;;;-6.00;99.90;;;;;;5033820;28;20200;-46
2022/12/18 04:15:12;;;;;;;1.42;1.05;;;-6.30;99.90;;;;;;5043136;28;20734;-48
2022/12/18 04:17:40;;;;;;;1.80;1.10;;;-6.40;99.90;;;;;;5052773;28;20207;-47
2022/12/18 04:20:08;;;;;;;1.10;1.00;;;-6.50;99.90;;;;;;5053350;28;20306;-46
2022/12/18 04:22:35;;;;;;;1.45;1.30;;;-6.30;99.90;;;;;;5053105;28;20195;-47
2022/12/18 04:25:02;;;;;;;1.75;1.65;;;-6.50;99.90;;;;;;5051533;28;20716;-46
2022/12/18 04:27:29;;;;;;;1.50;1.10;;;-6.60;99.90;;;;;;5052672;28;20201;-47
2022/12/18 04:29:56;;;;;;;1.50;1.40;;;-6.60;99.90;;;;;;5052787;28;20699;-46
2022/12/18 04:32:24;;;;;;;1.98;1.30;;;-6.70;99.90;;;;;;5052808;28;20243;-50
2022/12/18 04:34:51;;;;;;;1.73;1.10;;;-6.80;99.90;;;;;;5052099;28;20254;-50
2022/12/18 04:37:17;;;;;;;2.55;1.45;;;-6.70;99.90;;;;;;5051974;28;20823;-47
2022/12/18 04:39:44;;;;;;;2.03;1.30;;;-6.80;99.90;;;;;;5052281;28;20201;-46
2022/12/18 04:42:11;;;;;;;2.88;2.67;;;-7.10;99.90;;;;;;5052792;28;20739;-48
2022/12/18 04:44:38;;;;;;;1.55;1.42;;;-7.00;99.90;;;;;;5051726;28;20290;-48
2022/12/18 04:47:05;;;;;;;1.67;1.45;;;-6.90;99.90;;;;;;5052344;28;20302;-48
2022/12/18 04:49:33;;;;;;;1.75;1.50;;;-6.80;99.90;;;;;;5050586;28;20191;-48
2022/12/18 04:52:00;;;;;;;2.45;1.25;;;-6.60;99.90;;;;;;5051364;28;20286;-48
2022/12/18 04:54:27;;;;;;;1.50;1.27;;;-6.40;99.90;;;;;;5050840;28;20290;-47
2022/12/18 04:56:54;;;;;;;1.60;1.40;;;-6.40;99.90;;;;;;5050938;28;20294;-47
2022/12/18 04:59:20;;;;;;;2.38;1.50;;;-6.40;99.90;;;;;;5049874;28;20291;-48
2022/12/18 05:01:47;;;;;;;1.20;1.00;;;-6.70;99.90;;;;;;5050907;28;20203;-47
2022/12/18 05:04:14;;;;;;;1.10;0.77;;;-6.90;99.90;;;;;;5051853;28;20200;-47
2022/12/18 05:06:42;;;;;;;1.75;1.15;;;-7.30;99.90;;;;;;5052297;28;20656;-47
2022/12/18 05:09:09;;;;;;;1.10;0.90;;;-7.30;99.90;;;;;;5051338;28;20219;-46
2022/12/18 05:11:37;;;;;;;1.75;1.33;;;-6.90;99.90;;;;;;5052293;28;20217;-46
2022/12/18 05:14:04;;;;;;;1.10;0.82;;;-6.90;99.90;;;;;;5051649;28;20656;-47
2022/12/18 05:16:31;;;;;;;1.17;1.05;;;-6.80;99.90;;;;;;5051902;28;20690;-46
2022/12/18 05:18:58;;;;;;;0.80;0.70;;;-6.60;99.90;;;;;;5051481;28;20302;-46
2022/12/18 05:21:25;;;;;;;2.17;1.40;;;-6.90;99.90;;;;;;5051889;28;20230;-46
2022/12/18 05:23:53;;;;;;;1.00;0.90;;;-6.70;99.90;;;;;;5051175;28;20723;-48
2022/12/18 05:26:20;;;;;;;1.20;0.88;;;-6.80;99.90;;;;;;5050920;28;20242;-48
2022/12/18 05:28:47;;;;;;;2.00;1.60;;;-6.90;99.90;;;;;;5051667;28;20622;-46
2022/12/18 05:31:14;;;;;;;1.10;0.88;;;-7.00;99.90;;;;;;5051918;28;20294;-46
2022/12/18 05:33:41;;;;;;;2.60;1.40;;;-7.20;99.90;;;;;;5052103;28;20203;-46
2022/12/18 05:36:11;;;;;;;1.90;1.63;;;-7.40;99.90;;;;;;5051183;28;20575;-46
2022/12/18 05:38:39;;;;;;;3.42;2.22;;;-7.20;99.90;;;;;;5051315;28;20215;-46
2022/12/18 05:41:09;;;;;;;2.15;1.95;;;-7.20;99.90;;;;;;5051957;28;20286;-46
2022/12/18 05:43:36;;;;;;;2.60;1.88;;;-7.00;99.90;;;;;;5051749;28;20290;-47
2022/12/18 05:46:05;;;;;;;7.10;5.45;;;-7.00;99.90;;;;;;5051164;28;20224;-49
2022/12/18 05:48:32;;;;;;;4.60;3.28;;;-7.10;99.90;;;;;;5051065;28;20205;-46
2022/12/18 05:51:05;;;;;;;3.38;3.08;;;-7.00;99.90;;;;;;5051395;28;20199;-47
2022/12/18 05:53:32;;;;;;;2.60;2.10;;;-6.90;99.90;;;;;;5051385;28;20287;-48
2022/12/18 05:56:01;;;;;;;5.43;5.03;;;-7.00;99.90;;;;;;5051502;28;20226;-46
2022/12/18 05:58:30;;;;;;;10.90;9.80;;;-7.00;99.90;;;;;;5050860;28;20684;-47
2022/12/18 06:00:57;;;;;;;11.43;10.52;;;-6.90;99.90;;;;;;5031422;28;20199;-47
2022/12/18 06:03:24;;;;;;;4.68;3.70;;;-7.00;99.90;;;;;;5031136;28;20290;-46
2022/12/18 06:05:51;;;;;;;3.55;2.55;;;-7.10;99.90;;;;;;5041219;28;20259;-46
2022/12/18 06:08:18;;;;;;;2.55;2.35;;;-7.30;99.90;;;;;;5051056;28;20274;-46
2022/12/18 06:10:52;;;;;;;1.65;1.23;;;-7.10;99.90;;;;;;5051395;28;20337;-49
2022/12/18 06:13:19;;;;;;;3.70;2.25;;;-7.00;99.90;;;;;;5050566;28;20702;-48
2022/12/18 06:15:48;;;;;;;3.92;3.47;;;-7.20;99.90;;;;;;5051043;28;20313;-46
2022/12/18 06:18:14;;;;;;;2.83;2.63;;;-7.30;99.90;;;;;;5051000;28;20305;-46
2022/12/18 06:20:41;;;;;;;2.33;2.13;;;-7.20;99.90;;;;;;5050794;28;20191;-49
2022/12/18 06:23:09;;;;;;;1.88;1.75;;;-7.10;99.90;;;;;;5051031;28;20245;-46
2022/12/18 06:25:39;;;;;;;3.17;2.20;;;-7.20;99.90;;;;;;5050744;28;20625;-48
2022/12/18 06:28:06;;;;;;;3.53;1.88;;;-7.10;99.90;;;;;;5050980;28;20222;-46
2022/12/18 06:30:33;;;;;;;3.28;2.97;;;-7.00;99.90;;;;;;5051195;28;20291;-47
2022/12/18 06:33:01;;;;;;;3.38;2.95;;;-6.80;99.90;;;;;;5050920;28;20289;-49
2022/12/18 06:35:28;;;;;;;4.80;3.50;;;-7.10;99.90;;;;;;5050793;28;20258;-48
2022/12/18 06:37:55;;;;;;;3.63;3.28;;;-7.40;99.90;;;;;;5050789;28;20302;-48
2022/12/18 06:40:22;;;;;;;3.55;2.70;;;-7.00;99.90;;;;;;5049865;28;20275;-47
2022/12/18 06:42:49;;;;;;;2.60;2.40;;;-7.20;99.90;;;;;;5050884;28;20200;-48
2022/12/18 06:45:16;;;;;;;5.13;3.80;;;-7.50;99.90;;;;;;5050772;28;20306;-47
2022/12/18 06:47:43;;;;;;;4.10;2.05;;;-7.60;99.90;;;;;;5051105;28;20194;-46
2022/12/18 06:50:11;;;;;;;3.30;2.30;;;-7.30;99.90;;;;;;5054902;28;20199;-47
2022/12/18 06:52:38;;;;;;;3.10;2.30;;;-7.30;99.90;;;;;;5054651;28;20195;-47
2022/12/18 06:55:06;;;;;;;2.30;2.10;;;-7.20;99.90;;;;;;5053015;28;20313;-47
2022/12/18 06:57:33;;;;;;;3.75;3.35;;;-7.10;99.90;;;;;;5054449;28;20278;-49
2022/12/18 07:00:00;;;;;;;9.30;4.30;;;-7.20;99.90;;;;;;5054628;28;20287;-48
2022/12/18 07:02:27;;;;;;;4.75;2.70;;;-7.00;99.90;;;;;;5054386;28;20298;-46
2022/12/18 07:04:54;;;;;;;5.40;3.67;;;-6.80;99.90;;;;;;5053771;28;20548;-49
2022/12/18 07:07:22;;;;;;;2.60;2.00;;;-6.90;99.90;;;;;;5049680;28;20278;-46
2022/12/18 07:09:51;;;;;;;3.08;2.42;;;-6.60;99.90;;;;;;5040783;28;20274;-46
2022/12/18 07:12:18;;;;;;;4.20;2.70;;;-7.10;99.90;;;;;;5034899;28;20196;-46
2022/12/18 07:14:44;;;;;;;3.67;1.63;;;-7.10;99.90;;;;;;5053294;28;20297;-46
2022/12/18 07:17:11;;;;;;;1.92;1.73;;;-7.00;99.90;;;;;;5053568;28;20250;-47
2022/12/18 07:19:38;;;;;;;3.30;2.28;;;-7.10;99.90;;;;;;5052138;28;20302;-47
2022/12/18 07:22:05;;;;;;;3.42;2.42;;;-7.00;99.90;;;;;;5044598;28;20284;-49
2022/12/18 07:24:35;;;;;;;2.33;2.10;;;-6.90;99.90;;;;;;5052184;28;20214;-47
2022/12/18 07:27:01;;;;;;;2.13;1.98;;;-6.70;99.90;;;;;;5053177;28;20257;-48
2022/12/18 07:29:28;;;;;;;1.83;1.73;;;-6.70;99.90;;;;;;5052828;28;20274;-46
2022/12/18 07:31:55;;;;;;;2.67;2.45;;;-6.80;99.90;;;;;;5052696;28;20199;-46
2022/12/18 07:34:22;;;;;;;4.60;2.78;;;-7.10;99.90;;;;;;5053234;28;20192;-48
2022/12/18 07:36:49;;;;;;;4.22;2.72;;;-7.00;99.90;;;;;;5053759;28;20296;-47
2022/12/18 07:39:16;;;;;;;3.28;3.08;;;-6.90;99.90;;;;;;5053639;28;20218;-47
2022/12/18 07:42:30;;;;;;;3.78;3.38;;;-6.90;99.90;;;;;;5053957;28;20211;-47
2022/12/18 07:44:31;;;;;;;3.33;2.55;;;-6.80;99.90;;;;;;5053375;28;20246;-47
2022/12/18 07:46:58;;;;;;;2.63;2.15;;;-7.00;99.90;;;;;;5053390;28;20230;-46
2022/12/18 07:49:25;;;;;;;3.42;2.33;;;-7.10;99.90;;;;;;5053705;28;20257;-48
2022/12/18 07:51:52;;;;;;;3.92;2.50;;;-7.00;99.90;;;;;;5053409;28;20381;-46
2022/12/18 07:54:19;;;;;;;3.30;3.00;;;-7.30;99.90;;;;;;5053393;28;20289;-47
2022/12/18 07:56:47;;;;;;;4.88;3.42;;;-7.40;99.90;;;;;;5053520;28;20282;-47
2022/12/18 07:59:14;;;;;;;3.75;3.03;;;-7.20;99.90;;;;;;5053562;28;20225;-47
2022/12/18 08:01:40;;;;;;;3.50;2.78;;;-6.90;99.90;;;;;;5053516;28;20672;-46
2022/12/18 08:04:07;;;;;;;2.85;2.58;;;-6.90;99.90;;;;;;5052707;28;20291;-46
2022/12/18 08:06:34;;;;;;;2.67;2.28;;;-7.00;99.90;;;;;;5053360;28;20306;-47
2022/12/18 08:09:01;;;;;;;6.53;4.63;;;-7.20;99.90;;;;;;5052994;28;20536;-44
2022/12/18 08:11:29;;;;;;;6.97;4.97;;;-7.50;99.90;;;;;;5053308;28;20214;-46
2022/12/18 08:13:58;;;;;;;7.22;5.40;;;-7.90;99.90;;;;;;5052974;28;20203;-51
2022/12/18 08:16:25;;;;;;;4.22;3.10;;;-7.80;99.90;;;;;;5053262;28;20739;-46
2022/12/18 08:18:53;;;;;;;5.45;2.83;;;-7.40;99.90;;;;;;5052582;28;20618;-46
2022/12/18 08:21:22;;;;;;;2.53;2.33;;;-7.40;99.90;;;;;;5051312;28;20199;-47
2022/12/18 08:23:49;;;;;;;6.30;3.55;;;-7.40;99.90;;;;;;5047554;28;20195;-48
2022/12/18 08:26:17;;;;;;;7.78;2.28;;;-7.20;99.90;;;;;;5051149;28;20306;-46
2022/12/18 08:28:44;;;;;;;4.57;2.70;;;-7.10;99.90;;;;;;5050655;28;20278;-47
2022/12/18 08:31:12;;;;;;;3.22;2.60;;;-7.10;99.90;;;;;;5052009;28;20286;-46
2022/12/18 08:33:40;;;;;;;2.75;2.45;;;-6.90;99.90;;;;;;5048052;28;20266;-46
2022/12/18 08:36:07;;;;;;;2.83;2.33;;;-7.10;99.90;;;;;;5076877;22;20223;-50
2022/12/18 08:38:34;;;;;;;5.28;4.00;;;-7.00;99.90;;;;;;5046851;28;20307;-50
2022/12/18 08:41:02;;;;;;;4.90;3.58;;;-6.90;99.90;;;;;;5039411;28;20203;-50
2022/12/18 08:46:14;;;;;;;11.77;6.20;;;-6.80;99.90;;;;;;5049301;28;20230;-50
2022/12/18 08:48:41;;;;;;;5.65;4.75;;;-7.20;99.90;;;;;;5053049;28;20275;-52
2022/12/18 08:51:09;;;;;;;6.97;5.18;;;-7.40;99.90;;;;;;5045714;28;20660;-50
2022/12/18 08:53:36;;;;;;;13.25;8.80;;;-7.40;99.90;;;;;;5051784;28;20252;-50
2022/12/18 08:56:03;;;;;;;15.35;9.00;;;-7.20;99.90;;;;;;5052128;28;20223;-50
2022/12/18 08:58:30;;;;;;;15.93;8.85;;;-7.30;99.90;;;;;;5052418;28;20221;-50
2022/12/18 09:01:01;;;;;;;18.33;7.00;;;-7.10;99.90;;;;;;5045997;28;20282;-50
2022/12/18 09:03:29;;;;;;;18.90;9.85;;;-7.10;99.90;;;;;;5049078;28;20202;-50
2022/12/18 09:05:56;;;;;;;17.83;9.68;;;-7.50;99.90;;;;;;5052230;28;20219;-50
2022/12/18 09:08:23;;;;;;;20.33;9.93;;;-7.50;99.90;;;;;;5051787;28;20210;-50
2022/12/18 09:10:51;;;;;;;9.45;8.25;;;-7.30;99.90;;;;;;5051304;28;20732;-50
2022/12/18 09:13:18;;;;;;;8.27;7.05;;;-7.20;99.90;;;;;;5051674;28;20282;-49
2022/12/18 09:15:47;;;;;;;9.27;7.18;;;-7.10;99.90;;;;;;5043371;28;20218;-50
2022/12/18 09:18:15;;;;;;;14.57;8.90;;;-7.10;99.90;;;;;;5051801;28;20199;-49
2022/12/18 09:20:44;;;;;;;10.68;7.25;;;-7.20;99.90;;;;;;5051785;28;20483;-49
2022/12/18 09:23:12;;;;;;;8.80;6.45;;;-7.20;99.90;;;;;;5050703;28;20196;-50
2022/12/18 09:25:39;;;;;;;7.13;5.68;;;-7.00;99.90;;;;;;5051440;28;20231;-50
2022/12/18 09:28:11;;;;;;;6.93;6.22;;;-7.00;99.90;;;;;;5039122;28;20211;-49
2022/12/18 09:30:38;;;;;;;8.50;7.70;;;-7.00;99.90;;;;;;5045357;28;20191;-50
2022/12/18 09:33:05;;;;;;;9.20;7.30;;;-6.90;99.90;;;;;;5041725;28;20282;-49
2022/12/18 09:35:32;;;;;;;7.70;6.20;;;-6.60;99.90;;;;;;5049684;28;20229;-51
2022/12/18 09:38:00;;;;;;;8.00;5.60;;;-6.50;99.90;;;;;;5051138;28;20286;-50
2022/12/18 09:40:41;;;;;;;3.85;3.33;;;-6.60;99.90;;;;;;5051599;28;20314;-49
2022/12/18 09:43:12;;;;;;;5.57;4.13;;;-6.20;99.90;;;;;;5050765;28;20579;-49
2022/12/18 09:45:43;;;;;;;4.10;3.70;;;-6.10;99.90;;;;;;5051202;28;20203;-50
2022/12/18 09:48:16;;;;;;;7.45;5.15;;;-6.30;99.90;;;;;;5050683;28;20250;-48
2022/12/18 09:50:44;;;;;;;10.98;5.90;;;-6.50;99.90;;;;;;5049313;28;20198;-48
2022/12/18 09:53:18;;;;;;;10.38;7.43;;;-6.80;99.90;;;;;;5048928;28;20282;-50
2022/12/18 09:55:47;;;;;;;8.68;5.65;;;-7.00;99.90;;;;;;5049860;28;20488;-49
2022/12/18 09:58:20;;;;;;;6.97;5.53;;;-7.10;99.90;;;;;;5050136;28;20196;-50
2022/12/18 10:00:47;;;;;;;8.85;4.95;;;-6.80;99.90;;;;;;5049369;28;20302;-52
2022/12/18 10:03:15;;;;;;;7.05;5.60;;;-6.60;99.90;;;;;;5049769;28;20199;-52
2022/12/18 10:05:49;;;;;;;8.27;7.47;;;-6.40;99.90;;;;;;5051147;28;20306;-51
2022/12/18 10:08:23;;;;;;;9.98;8.45;;;-6.50;99.90;;;;;;5050846;28;20199;-49
2022/12/18 10:10:53;;;;;;;12.13;8.52;;;-6.70;99.90;;;;;;5049830;28;20299;-51
2022/12/18 10:13:32;;;;;;;9.23;7.45;;;-6.30;99.90;;;;;;5050596;28;20552;-48
2022/12/18 10:16:15;;;;;;;8.48;6.30;;;-6.10;99.90;;;;;;5050872;28;20214;-49
2022/12/18 10:19:02;;;;;;;8.20;6.35;;;-6.00;99.90;;;;;;5049050;28;20286;-51
2022/12/18 10:21:37;;;;;;;5.80;4.80;;;-6.00;99.90;;;;;;5051226;28;20257;-49
2022/12/18 10:24:19;;;;;;;4.55;2.58;;;-5.40;99.90;;;;;;5054559;28;20573;-50
2022/12/18 10:26:56;;;;;;;4.57;2.80;;;-5.30;99.90;;;;;;5053526;28;20230;-49
2022/12/18 10:29:25;;;;;;;6.10;4.43;;;-5.40;99.90;;;;;;5053386;28;20397;-52
2022/12/18 10:31:52;;;;;;;5.90;4.97;;;-5.30;99.90;;;;;;5053667;28;20715;-49
2022/12/18 10:34:19;;;;;;;10.40;5.47;;;-5.10;99.90;;;;;;5053447;28;20195;-49
2022/12/18 10:36:48;;;;;;;6.28;5.60;;;-5.10;99.90;;;;;;5053532;28;20565;-51
2022/12/18 10:39:18;;;;;;;13.37;9.17;;;-4.90;99.90;;;;;;5053999;28;20241;-48
2022/12/18 10:41:45;;;;;;;12.93;8.67;;;-4.90;99.90;;;;;;5055092;28;20536;-49
2022/12/18 10:44:18;;;;;;;8.53;7.60;;;-5.00;99.90;;;;;;5054263;28;20485;-49
2022/12/18 10:46:46;;;;;;;7.30;5.80;;;-5.10;99.90;;;;;;5054736;28;20839;-49
2022/12/18 10:49:27;;;;;;;8.33;6.53;;;-5.50;99.90;;;;;;5054397;28;20529;-49
2022/12/18 10:52:06;;;;;;;5.67;4.63;;;-5.60;99.90;;;;;;5054489;28;20985;-49
2022/12/18 10:54:35;;;;;;;3.78;3.30;;;-5.40;99.90;;;;;;5055013;28;20509;-49
2022/12/18 10:57:16;;;;;;;6.97;3.73;;;-5.00;99.90;;;;;;5054390;28;20228;-48
2022/12/18 10:59:52;;;;;;;6.37;4.23;;;-4.20;99.90;;;;;;5055230;28;20740;-49
2022/12/18 11:02:28;;;;;;;4.30;3.10;;;-2.90;99.90;;;;;;5054810;28;20483;-51
2022/12/18 11:04:55;;;;;;;4.47;4.07;;;-3.20;99.90;;;;;;5053988;28;20473;-54
2022/12/18 11:07:22;;;;;;;11.80;8.10;;;-3.40;99.90;;;;;;5054389;28;20839;-49
2022/12/18 11:10:01;;;;;;;8.67;7.10;;;-2.70;99.90;;;;;;5054826;28;20448;-49
2022/12/18 11:12:30;;;;;;;7.30;6.33;;;-3.00;99.90;;;;;;5054574;28;20451;-50
2022/12/18 11:14:57;;;;;;;6.00;5.20;;;-3.20;99.90;;;;;;5053772;28;20446;-49
2022/12/18 11:17:30;;;;;;;7.23;4.90;;;-3.60;99.90;;;;;;5054057;28;20942;-50
2022/12/18 11:19:58;;;;;;;5.40;3.80;;;-4.00;99.90;;;;;;5054335;28;20482;-49
2022/12/18 11:22:27;;;;;;;2.07;1.87;;;-4.10;99.90;;;;;;5054099;28;20446;-50
2022/12/18 11:24:59;;;;;;;4.03;3.27;;;-4.00;99.90;;;;;;5054214;28;20449;-49
2022/12/18 11:27:27;;;;;;;5.90;5.00;;;-3.80;99.90;;;;;;5054187;28;20463;-50
2022/12/18 11:29:53;;;;;;;6.40;5.40;;;-3.60;99.90;;;;;;5054019;28;20531;-50
2022/12/18 11:32:29;;;;;;;9.67;6.07;;;-3.50;99.90;;;;;;5053941;28;20454;-49
2022/12/18 11:35:01;;;;;;;12.67;10.40;;;-3.30;99.90;;;;;;5053333;28;20857;-50
2022/12/18 11:37:30;;;;;;;8.60;7.70;;;-2.50;99.90;;;;;;5053803;28;20473;-49
2022/12/18 11:40:02;;;;;;;6.33;5.73;;;-2.60;99.90;;;;;;5053745;28;20557;-49
2022/12/18 11:42:36;;;;;;;6.53;5.87;;;-2.80;99.90;;;;;;5054070;28;20537;-49
2022/12/18 11:45:09;;;;;;;6.97;5.73;;;-2.90;99.90;;;;;;5053785;28;20976;-49
2022/12/18 11:47:41;;;;;;;6.73;5.80;;;-3.00;99.90;;;;;;5053717;28;20906;-49
2022/12/18 11:50:19;;;;;;;5.80;5.30;;;-3.00;99.90;;;;;;5053779;28;20956;-49
2022/12/18 11:52:46;;;;;;;6.97;5.87;;;-3.10;99.90;;;;;;5053515;28;20527;-49
2022/12/18 11:55:17;;;;;;;6.50;5.87;;;-3.20;99.90;;;;;;5053829;28;20528;-51
2022/12/18 11:57:55;;;;;;;5.63;5.07;;;-3.10;99.90;;;;;;5053845;28;20466;-50
2022/12/18 12:00:24;;;;;;;6.33;5.73;;;-3.20;99.90;;;;;;5053458;28;20483;-50
2022/12/18 12:03:26;;;;;;;7.40;5.97;;;-3.30;99.90;;;;;;5053373;28;20450;-53
2022/12/18 12:06:08;;;;;;;6.93;6.23;;;-3.00;99.90;;;;;;5040185;28;20524;-53
2022/12/18 12:08:43;;;;;;;9.03;6.53;;;-2.80;99.90;;;;;;5053506;28;20445;-53
2022/12/18 12:11:18;;;;;;;8.37;7.57;;;-2.90;99.90;;;;;;5053700;28;20428;-51
2022/12/18 12:14:03;;;;;;;8.37;7.53;;;-2.80;99.90;;;;;;5052734;28;20556;-51
2022/12/18 12:16:38;;;;;;;6.03;5.43;;;-2.90;99.90;;;;;;5053257;28;21014;-50
2022/12/18 12:19:19;;;;;;;5.77;5.17;;;-3.00;99.90;;;;;;5053298;28;20452;-50
2022/12/18 12:21:55;;;;;;;5.50;4.63;;;-2.80;99.90;;;;;;5053199;28;20444;-50
2022/12/18 12:24:35;;;;;;;5.47;4.90;;;-2.70;99.90;;;;;;5053194;28;20445;-53
2022/12/18 12:27:12;;;;;;;5.70;4.90;;;-2.70;99.90;;;;;;5052907;28;20861;-51
2022/12/18 12:29:48;;;;;;;7.40;5.40;;;-2.50;99.90;;;;;;5052982;28;20797;-52
2022/12/18 12:32:31;;;;;;;7.77;6.37;;;-2.40;99.90;;;;;;5052937;28;21020;-52
2022/12/18 12:35:14;;;;;;;7.77;5.73;;;-2.50;99.90;;;;;;5053020;28;20441;-51
2022/12/18 12:37:51;;;;;;;6.50;4.90;;;-2.60;99.90;;;;;;5053080;28;20470;-50
2022/12/18 12:40:20;;;;;;;5.90;4.70;;;-2.40;99.90;;;;;;5053399;28;20487;-51
2022/12/18 12:43:13;;;;;;;4.93;4.00;;;-2.40;99.90;;;;;;5053195;28;20480;-51
2022/12/18 12:45:45;;;;;;;5.07;4.30;;;-2.40;99.90;;;;;;5051601;28;20460;-52
2022/12/18 12:48:21;;;;;;;5.13;4.00;;;-2.30;99.90;;;;;;5052771;28;20525;-52
2022/12/18 12:50:50;;;;;;;7.37;5.20;;;-2.20;99.90;;;;;;5052508;28;20447;-53
2022/12/18 12:53:26;;;;;;;6.83;5.20;;;-2.10;99.90;;;;;;5052317;28;20540;-51
2022/12/18 12:55:54;;;;;;;7.30;5.70;;;-2.00;99.90;;;;;;5052715;28;20464;-52
2022/12/18 12:58:32;;;;;;;7.30;6.17;;;-2.10;99.90;;;;;;5052318;28;20450;-51
2022/12/18 13:01:13;;;;;;;7.47;5.90;;;-2.30;99.90;;;;;;5052260;28;20567;-52
2022/12/18 13:03:53;;;;;;;7.43;5.80;;;-2.20;99.90;;;;;;5052128;28;21003;-50